createdAt,value
2023-03-13T00:03:55.543Z,71.32
2023-03-13T00:08:50.687Z,70.65
2023-03-13T00:13:44.578Z,69.97
2023-03-13T00:18:38.156Z,70.80
2023-03-13T00:23:32.594Z,70.97
2023-03-13T00:28:32.337Z,70.90
2023-03-13T00:33:25.881Z,71.39
2023-03-13T00:38:19.354Z,71.06
2023-03-13T00:43:12.964Z,70.81
2023-03-13T00:48:09.997Z,70.88
2023-03-13T00:53:03.518Z,70.60
2023-03-13T00:57:56.981Z,71.82
2023-03-13T01:02:50.974Z,72.27
2023-03-13T01:07:45.960Z,73.38
2023-03-13T01:12:39.297Z,73.52
2023-03-13T01:17:32.687Z,72.87
2023-03-13T01:22:27.672Z,72.80
2023-03-13T01:27:22.576Z,73.07
2023-03-13T01:32:16.056Z,72.86
2023-03-13T01:37:09.362Z,73.03
2023-03-13T01:42:04.342Z,73.69
2023-03-13T01:46:59.383Z,74.91
2023-03-13T01:51:56.617Z,75.45
2023-03-13T01:56:52.952Z,75.64
2023-03-13T02:01:48.738Z,75.21
2023-03-13T02:06:46.580Z,75.49
2023-03-13T02:11:49.281Z,75.90
2023-03-13T02:16:47.848Z,76.24
2023-03-13T02:21:47.544Z,75.38
2023-03-13T02:26:42.259Z,74.63
2023-03-13T02:31:36.228Z,74.46
2023-03-13T02:36:32.345Z,74.20
2023-03-13T02:41:26.957Z,73.94
2023-03-13T02:46:23.953Z,74.32
2023-03-13T02:51:26.859Z,75.11
2023-03-13T02:56:25.547Z,75.71
2023-03-13T03:01:20.001Z,75.89
2023-03-13T03:06:15.143Z,76.16
2023-03-13T03:11:09.563Z,75.49
2023-03-13T03:16:08.144Z,77.56
2023-03-13T03:21:01.527Z,76.60
2023-03-13T03:25:56.446Z,75.89
2023-03-13T03:30:49.731Z,76.64
2023-03-13T03:35:43.098Z,77.96
2023-03-13T03:40:36.708Z,79.42
2023-03-13T03:45:31.367Z,80.32
2023-03-13T03:50:24.934Z,81.10
2023-03-13T03:55:24.034Z,82.96
2023-03-13T04:00:19.281Z,82.20
2023-03-13T04:05:19.323Z,79.95
2023-03-13T04:10:13.591Z,80.11
2023-03-13T04:15:13.842Z,79.36
2023-03-13T04:20:08.561Z,78.02
2023-03-13T04:25:03.513Z,76.48
2023-03-13T04:29:58.773Z,75.61
2023-03-13T04:34:52.209Z,75.73
2023-03-13T04:40:09.373Z,74.83
2023-03-13T04:45:13.131Z,74.93
2023-03-13T04:50:47.192Z,74.07
2023-03-13T04:55:56.181Z,74.38
2023-03-13T05:01:22.177Z,75.92
2023-03-13T05:06:37.749Z,75.59
2023-03-13T05:11:44.419Z,75.71
2023-03-13T05:16:56.874Z,76.12
2023-03-13T05:22:13.227Z,76.18
2023-03-13T05:27:39.232Z,75.53
2023-03-13T05:32:51.994Z,76.25
2023-03-13T05:38:04.593Z,75.30
2023-03-13T05:43:34.504Z,74.68
2023-03-13T05:48:46.606Z,74.50
2023-03-13T05:53:58.577Z,74.89
2023-03-13T05:58:53.515Z,74.63
2023-03-13T06:04:25.512Z,74.06
2023-03-13T06:09:18.951Z,73.34
2023-03-13T06:14:16.988Z,73.09
2023-03-13T06:19:20.731Z,73.02
2023-03-13T06:24:13.946Z,72.70
2023-03-13T06:29:07.139Z,72.52
2023-03-13T06:34:01.798Z,71.83
2023-03-13T06:38:55.011Z,70.95
2023-03-13T06:43:48.155Z,70.38
2023-03-13T06:48:41.420Z,68.90
2023-03-13T06:53:36.054Z,68.01
2023-03-13T06:58:32.880Z,67.67
2023-03-13T07:03:26.471Z,66.09
2023-03-13T07:08:19.682Z,64.61
2023-03-13T07:13:14.368Z,64.34
2023-03-13T07:18:07.677Z,63.70
2023-03-13T07:23:00.847Z,63.22
2023-03-13T07:27:54.219Z,62.79
2023-03-13T07:32:49.005Z,63.31
2023-03-13T07:37:53.663Z,62.49
2023-03-13T07:42:55.777Z,63.56
2023-03-13T07:47:50.448Z,63.91
2023-03-13T07:52:43.729Z,63.11
2023-03-13T07:57:36.972Z,63.00
2023-03-13T08:02:30.369Z,62.99
2023-03-13T08:07:25.679Z,62.69
2023-03-13T08:12:18.962Z,60.86
2023-03-13T08:17:12.546Z,61.00
2023-03-13T08:22:07.867Z,60.57
2023-03-13T08:27:05.018Z,59.82
2023-03-13T08:32:01.198Z,59.61
2023-03-13T08:36:54.461Z,58.64
2023-03-13T08:41:48.325Z,58.21
2023-03-13T08:46:44.090Z,57.61
2023-03-13T08:51:37.664Z,57.65
2023-03-13T08:56:38.634Z,56.25
2023-03-13T09:01:35.604Z,55.18
2023-03-13T09:06:33.582Z,50.34
2023-03-13T09:11:27.383Z,53.53
2023-03-13T09:16:24.560Z,47.62
2023-03-13T09:21:23.384Z,45.13
2023-03-13T09:26:22.615Z,42.94
2023-03-13T09:31:18.708Z,42.54
2023-03-13T09:36:13.142Z,41.33
2023-03-13T09:41:21.826Z,39.23
2023-03-13T09:46:27.107Z,38.12
2023-03-13T09:51:29.287Z,37.55
2023-03-13T09:56:26.505Z,37.15
2023-03-13T10:01:24.007Z,38.23
2023-03-13T10:06:21.255Z,38.47
2023-03-13T10:11:27.042Z,37.67
2023-03-13T10:16:28.215Z,37.78
2023-03-13T10:21:24.483Z,38.89
2023-03-13T10:26:22.810Z,40.14
2023-03-13T10:31:26.079Z,39.74
2023-03-13T10:36:21.069Z,38.21
2023-03-13T10:41:32.457Z,35.91
2023-03-13T10:46:32.417Z,36.76
2023-03-13T10:51:34.813Z,35.87
2023-03-13T10:56:31.711Z,36.36
2023-03-13T11:01:32.672Z,36.42
2023-03-13T11:06:31.359Z,36.17
2023-03-13T11:11:27.772Z,37.77
2023-03-13T11:16:23.663Z,34.81
2023-03-13T11:21:25.502Z,35.34
2023-03-13T11:26:28.193Z,35.62
2023-03-13T11:31:26.040Z,34.15
2023-03-13T11:36:28.900Z,33.94
2023-03-13T11:41:38.675Z,28.59
2023-03-13T11:46:56.019Z,27.27
2023-03-13T11:52:02.074Z,26.35
2023-03-13T11:56:58.520Z,27.14
2023-03-13T12:01:57.174Z,26.84
2023-03-13T12:06:58.128Z,25.59
2023-03-13T12:12:03.479Z,25.28
2023-03-13T12:17:01.468Z,26.01
2023-03-13T12:21:59.638Z,26.68
2023-03-13T12:26:57.285Z,26.50
2023-03-13T12:31:54.826Z,27.42
2023-03-13T12:36:52.847Z,26.46
2023-03-13T12:41:55.023Z,25.76
2023-03-13T12:46:56.679Z,25.84
2023-03-13T12:52:07.959Z,24.34
2023-03-13T12:57:14.521Z,24.46
2023-03-13T13:02:17.849Z,24.52
2023-03-13T13:07:26.935Z,23.80
2023-03-13T13:12:26.571Z,23.11
2023-03-13T13:17:27.721Z,22.14
2023-03-13T13:22:52.464Z,20.19
2023-03-13T13:27:54.148Z,20.76
2023-03-13T13:32:48.921Z,21.50
2023-03-13T13:37:42.411Z,21.59
2023-03-13T13:42:48.180Z,22.17
2023-03-13T13:47:45.503Z,21.85
2023-03-13T13:52:39.643Z,22.00
2023-03-13T13:57:36.125Z,22.86
2023-03-13T14:02:35.509Z,23.59
2023-03-13T14:07:48.383Z,22.17
2023-03-13T14:12:41.730Z,21.95
2023-03-13T14:17:40.846Z,22.49
2023-03-13T14:22:51.052Z,22.60
2023-03-13T14:27:45.393Z,23.22
2023-03-13T14:32:42.172Z,24.40
2023-03-13T14:37:36.988Z,25.58
2023-03-13T14:42:40.336Z,25.44
2023-03-13T14:47:36.087Z,26.59
2023-03-13T14:52:31.521Z,27.43
2023-03-13T14:57:27.623Z,27.76
2023-03-13T15:02:25.181Z,28.92
2023-03-13T15:07:20.798Z,29.70
2023-03-13T15:12:16.796Z,30.04
2023-03-13T15:17:22.177Z,30.22
2023-03-13T15:22:18.158Z,31.45
2023-03-13T15:27:18.941Z,33.01
2023-03-13T15:32:27.502Z,32.31
2023-03-13T15:37:35.295Z,33.46
2023-03-13T15:42:28.567Z,33.50
2023-03-13T15:47:23.339Z,34.60
2023-03-13T15:52:19.216Z,34.88
2023-03-13T15:57:15.928Z,34.94
2023-03-13T16:02:15.600Z,34.66
2023-03-13T16:07:11.581Z,35.00
2023-03-13T16:12:05.257Z,35.56
2023-03-13T16:17:00.601Z,35.56
2023-03-13T16:21:56.565Z,36.04
2023-03-13T16:26:52.723Z,36.34
2023-03-13T16:31:46.456Z,36.26
2023-03-13T16:36:42.710Z,36.85
2023-03-13T16:41:40.948Z,36.77
2023-03-13T16:46:38.075Z,37.61
2023-03-13T16:51:37.392Z,38.21
2023-03-13T16:56:34.897Z,38.20
2023-03-13T17:01:30.157Z,38.27
2023-03-13T17:06:25.297Z,39.14
2023-03-13T17:11:21.449Z,40.49
2023-03-13T17:16:18.858Z,41.36
2023-03-13T17:21:17.903Z,41.67
2023-03-13T17:26:24.088Z,41.42
2023-03-13T17:31:21.240Z,41.71
2023-03-13T17:36:20.421Z,42.10
2023-03-13T17:41:15.965Z,42.99
2023-03-13T17:46:20.265Z,43.25
2023-03-13T17:51:19.207Z,43.70
2023-03-13T17:56:29.555Z,44.28
2023-03-13T18:01:25.844Z,43.67
2023-03-13T18:06:25.200Z,43.77
2023-03-13T18:11:19.468Z,43.91
2023-03-13T18:16:25.457Z,43.91
2023-03-13T18:21:19.028Z,44.08
2023-03-13T18:26:24.024Z,44.17
2023-03-13T18:31:17.572Z,44.35
2023-03-13T18:36:20.128Z,44.59
2023-03-13T18:41:15.530Z,44.51
2023-03-13T18:46:15.886Z,44.57
2023-03-13T18:51:12.546Z,43.11
2023-03-13T18:56:17.198Z,43.29
2023-03-13T19:01:13.957Z,43.81
2023-03-13T19:06:21.896Z,43.70
2023-03-13T19:11:17.391Z,43.16
2023-03-13T19:16:16.139Z,42.27
2023-03-13T19:21:17.470Z,45.84
2023-03-13T19:26:16.984Z,47.59
2023-03-13T19:31:10.269Z,49.07
2023-03-13T19:36:03.636Z,50.78
2023-03-13T19:41:04.873Z,50.67
2023-03-13T19:46:02.248Z,49.09
2023-03-13T19:50:56.946Z,47.67
2023-03-13T19:55:58.648Z,47.57
2023-03-13T20:00:52.102Z,47.88
2023-03-13T20:05:48.992Z,47.65
2023-03-13T20:10:43.729Z,47.04
2023-03-13T20:15:37.150Z,47.24
2023-03-13T20:20:30.655Z,47.09
2023-03-13T20:25:25.415Z,47.11
2023-03-13T20:30:19.173Z,47.28
2023-03-13T20:35:14.235Z,47.24
2023-03-13T20:40:09.106Z,47.70
2023-03-13T20:45:03.908Z,48.01
2023-03-13T20:49:57.708Z,48.29
2023-03-13T20:54:54.184Z,48.21
2023-03-13T20:59:47.510Z,48.28
2023-03-13T21:04:42.403Z,48.56
2023-03-13T21:09:37.667Z,48.64
2023-03-13T21:14:31.355Z,48.96
2023-03-13T21:19:27.728Z,49.21
2023-03-13T21:24:22.438Z,48.89
2023-03-13T21:29:16.010Z,49.46
2023-03-13T21:34:10.793Z,49.88
2023-03-13T21:39:09.416Z,50.44
2023-03-13T21:44:04.841Z,50.67
2023-03-13T21:48:58.436Z,50.53
2023-03-13T21:53:53.643Z,51.18
2023-03-13T21:58:47.227Z,51.48
2023-03-13T22:03:42.415Z,51.95
2023-03-13T22:08:36.098Z,52.12
2023-03-13T22:13:29.370Z,52.51
2023-03-13T22:18:22.824Z,52.75
2023-03-13T22:23:18.019Z,52.52
2023-03-13T22:28:12.155Z,52.48
2023-03-13T22:33:12.548Z,52.57
2023-03-13T22:38:06.466Z,52.50
2023-03-13T22:43:01.352Z,52.40
2023-03-13T22:47:54.819Z,52.29
2023-03-13T22:52:48.121Z,52.53
2023-03-13T22:57:41.987Z,52.96
2023-03-13T23:02:36.742Z,53.43
2023-03-13T23:07:32.447Z,53.70
2023-03-13T23:12:26.127Z,54.20
2023-03-13T23:17:19.486Z,54.50
2023-03-13T23:22:17.902Z,54.33
2023-03-13T23:27:13.908Z,54.28
2023-03-13T23:32:07.698Z,54.15
2023-03-13T23:37:00.986Z,53.74
2023-03-13T23:41:56.320Z,53.13
2023-03-13T23:46:52.813Z,53.06
2023-03-13T23:51:46.760Z,52.93
2023-03-13T23:56:42.627Z,53.07
